Strona główna
METAR-TAF:

METAR-TAF

Lotnisko :

Port lotniczy Lusaka

Lusaka, Zambia

Szerokość geograficzna: 15-19-51S, Długość geograficzna: 028-27-09E, wysokość: 1152 m

Aktualna obserwacja pogody

Raport powstał 1 godzina i 5 minut temu, godzina 15:00 UTC
Wiatr 10 kt od wschodnio-południowy wschód
Temperatura 29°C
Wilgotność 20%
Ciśnienie 1017 hPa
Widzialność: 8000 m

METAR: FLKK 231500Z 12010KT 8000 NSC 29/04 Q1017

czas: 18:05 (16:05 UTC)


TAF: brakujący

Obserwacja i prognoza pogody dla ponad 4000 lotnisk (raport METAR i TAF).

Dostępne stacje oznaczono żółtymi i czerwonymi punktami na mapie.

Najedź kursorem aby zobaczyć nazwę stacji.

Kliknij aby zobaczyć obserwacje i prognozy pogody.

Aby zmienić mapę: kliknij na zielony przycisk z czarnym krzyżykiem, aby powiększyć; na zielony przycisk z myślnikiem, aby pomniejszyć; na zielone strzałki, aby przejść do map sąsiednich.


METAR-TAF: